Time;durP1;ratioP1;P1;durP2;ratioP2;P2;SDS_P1;SDS_P2;PMS_P1;PMS_P2;Temp;Humidity;BMP_temperature;BMP_pressure;BME280_temperature;BME280_humidity;BME280_pressure;Samples;Min_cycle;Max_cycle;Signal;HPM_P1;HPM_P2
2021/09/20 00:02:08;;;;;;;8.38;7.57;;;14.20;75.10;;;12.88;79.40;95951.00;4945958;28;20449;-67
2021/09/20 00:04:34;;;;;;;8.85;7.47;;;14.10;75.50;;;12.88;78.91;95944.91;4949476;28;20066;-67
2021/09/20 00:06:59;;;;;;;8.43;7.63;;;14.20;75.50;;;12.88;79.34;95939.63;4941642;28;20126;-67
2021/09/20 00:09:25;;;;;;;11.73;7.47;;;14.20;75.40;;;12.89;78.99;95949.97;4958359;28;20026;-67
2021/09/20 00:11:51;;;;;;;8.27;7.43;;;14.20;75.20;;;12.89;78.96;95946.53;4938632;28;20065;-67
2021/09/20 00:14:16;;;;;;;9.57;8.40;;;14.20;75.10;;;12.87;79.46;95943.28;4960639;28;20061;-67
2021/09/20 00:16:42;;;;;;;8.65;7.75;;;14.20;75.10;;;12.85;79.19;95940.03;4947624;28;20091;-67
2021/09/20 00:19:08;;;;;;;8.25;7.43;;;14.10;75.30;;;12.81;79.29;95947.56;4931196;28;22012;-67
2021/09/20 00:21:34;;;;;;;8.13;7.25;;;14.20;75.10;;;12.82;78.96;95945.75;4946105;28;20577;-67
2021/09/20 00:23:59;;;;;;;8.77;7.97;;;14.10;75.10;;;12.79;79.36;95948.78;4951029;28;20070;-67
2021/09/20 00:26:25;;;;;;;9.23;8.32;;;14.10;75.20;;;12.76;79.50;95942.09;4935552;28;20095;-67
2021/09/20 00:28:51;;;;;;;8.52;7.70;;;14.10;75.30;;;12.77;79.88;95941.09;4951741;28;20035;-67
2021/09/20 00:31:17;;;;;;;9.68;7.75;;;14.10;75.20;;;12.76;79.63;95955.31;4953898;28;20054;-67
2021/09/20 00:33:42;;;;;;;8.57;7.75;;;14.10;75.60;;;12.75;79.50;95951.03;4949388;28;20036;-67
2021/09/20 00:36:08;;;;;;;9.15;8.25;;;14.10;75.50;;;12.75;79.54;95935.19;4936185;28;20565;-67
2021/09/20 00:38:34;;;;;;;9.30;8.27;;;14.10;75.70;;;12.75;79.54;95945.75;4934168;28;20491;-67
2021/09/20 00:41:00;;;;;;;10.23;8.38;;;14.10;75.50;;;12.74;79.16;95943.31;4954933;28;20110;-67
2021/09/20 00:43:25;;;;;;;9.73;8.35;;;14.10;75.60;;;12.73;79.58;95937.25;4937219;28;20175;-67
2021/09/20 00:45:51;;;;;;;11.40;8.30;;;14.10;75.70;;;12.72;79.64;95940.09;4950211;28;20042;-67
2021/09/20 00:48:17;;;;;;;10.00;8.82;;;14.10;75.70;;;12.71;79.05;95938.47;4919202;29;20070;-66
2021/09/20 00:50:43;;;;;;;10.27;8.18;;;14.00;75.50;;;12.70;79.80;95945.56;4963709;28;20070;-67
2021/09/20 00:53:08;;;;;;;9.13;8.15;;;14.10;75.50;;;12.69;79.85;95940.50;4934044;28;20118;-67
2021/09/20 00:55:35;;;;;;;9.27;8.15;;;14.00;75.70;;;12.66;80.04;95941.69;4954457;28;20522;-67
2021/09/20 00:58:01;;;;;;;9.18;8.27;;;14.10;75.80;;;12.64;79.80;95949.00;4950680;28;20035;-67
2021/09/20 01:00:27;;;;;;;9.00;8.10;;;14.00;75.70;;;12.64;79.96;95951.66;4920605;28;20623;-67
2021/09/20 01:02:53;;;;;;;8.77;7.88;;;14.00;75.80;;;12.62;80.02;95955.50;4946454;28;20495;-67
2021/09/20 01:05:18;;;;;;;8.88;7.95;;;14.00;75.80;;;12.60;80.57;95952.28;4944470;28;20059;-67
2021/09/20 01:07:44;;;;;;;8.82;7.93;;;13.90;75.90;;;12.58;80.47;95955.13;4929723;28;21470;-67
2021/09/20 01:10:11;;;;;;;9.77;8.20;;;14.00;76.00;;;12.58;80.46;95960.38;4937064;28;20463;-67
2021/09/20 01:12:38;;;;;;;10.73;8.82;;;13.90;76.20;;;12.56;80.26;95963.25;4954049;28;20056;-67
2021/09/20 01:15:05;;;;;;;8.85;8.00;;;13.90;76.20;;;12.53;80.35;95962.84;4948538;28;20543;-67
2021/09/20 01:17:30;;;;;;;9.18;8.27;;;14.00;76.30;;;12.54;80.51;95964.47;4942116;28;20031;-67
2021/09/20 01:19:56;;;;;;;9.23;8.32;;;14.00;76.20;;;12.54;79.98;95975.00;4918400;28;20065;-67
2021/09/20 01:22:22;;;;;;;9.50;8.60;;;13.90;75.80;;;12.52;80.66;95975.22;4936590;28;20039;-67
2021/09/20 01:24:48;;;;;;;9.80;8.90;;;13.90;76.00;;;12.46;80.88;95972.59;4951773;28;20716;-67
2021/09/20 01:27:17;;;;;;;17.08;8.98;;;13.80;76.30;;;12.46;80.27;95973.41;4931945;28;20039;-67
2021/09/20 01:29:42;;;;;;;9.20;8.30;;;13.80;76.30;;;12.49;80.33;95980.09;4953394;28;20089;-67
2021/09/20 01:32:08;;;;;;;10.00;9.00;;;13.80;76.20;;;12.45;80.24;95976.25;4946625;28;20035;-67
2021/09/20 01:34:34;;;;;;;10.43;9.32;;;13.80;76.10;;;12.43;80.12;95976.41;4946187;28;20062;-68
2021/09/20 01:37:00;;;;;;;9.75;8.75;;;13.70;76.30;;;12.41;80.51;95978.44;4931465;28;20036;-67
2021/09/20 01:39:28;;;;;;;10.57;9.48;;;13.70;76.40;;;12.41;80.43;95985.56;4932928;28;20101;-67
2021/09/20 01:41:54;;;;;;;10.18;9.05;;;13.80;76.20;;;12.39;80.55;95984.94;4964946;28;20043;-67
2021/09/20 01:44:19;;;;;;;10.18;9.02;;;13.80;76.10;;;12.40;80.63;95989.22;4923658;28;20039;-67
2021/09/20 01:46:47;;;;;;;9.57;8.68;;;13.80;76.30;;;12.40;80.68;95983.94;4958790;28;20558;-67
2021/09/20 01:49:13;;;;;;;10.07;9.07;;;13.70;76.30;;;12.38;80.74;95981.50;4938163;28;20051;-67
2021/09/20 01:51:38;;;;;;;11.52;9.52;;;13.70;76.20;;;12.37;80.68;95994.91;4918805;28;20082;-67
2021/09/20 01:54:04;;;;;;;10.45;9.15;;;13.70;76.40;;;12.34;80.96;95993.47;4933454;28;20055;-66
2021/09/20 01:56:31;;;;;;;10.27;9.25;;;13.70;76.30;;;12.33;80.74;95993.69;4933285;28;20036;-67
2021/09/20 01:58:57;;;;;;;11.05;9.15;;;13.70;76.80;;;12.33;80.65;96004.22;4935767;28;20398;-66
2021/09/20 02:01:23;;;;;;;10.48;9.32;;;13.70;76.80;;;12.34;81.33;96003.22;4941895;28;20090;-66
2021/09/20 02:03:52;;;;;;;10.43;9.35;;;13.70;77.00;;;12.34;81.47;96005.84;4966569;28;20201;-67
2021/09/20 02:06:18;;;;;;;10.82;9.75;;;13.70;76.60;;;12.35;81.28;96008.28;4951906;28;20042;-67
2021/09/20 02:08:44;;;;;;;12.30;9.73;;;13.70;76.50;;;12.36;81.32;96009.09;4942868;28;20038;-66
2021/09/20 02:11:10;;;;;;;10.57;9.45;;;13.80;76.50;;;12.38;80.65;96014.97;4944585;28;20071;-66
2021/09/20 02:13:36;;;;;;;11.73;9.88;;;13.80;76.60;;;12.35;81.17;96002.19;4937902;28;20027;-66
2021/09/20 02:16:02;;;;;;;10.60;9.57;;;13.70;76.40;;;12.37;81.08;96005.44;4962153;28;20023;-66
2021/09/20 02:18:27;;;;;;;12.00;9.77;;;13.80;76.60;;;12.37;81.20;96000.16;4952478;28;20063;-66
2021/09/20 02:20:53;;;;;;;12.23;9.93;;;13.80;76.80;;;12.36;81.56;95998.53;4951521;28;20035;-66
2021/09/20 02:23:19;;;;;;;11.15;10.00;;;13.80;76.80;;;12.37;81.23;95990.44;4942416;28;20094;-66
2021/09/20 02:25:45;;;;;;;12.38;10.13;;;13.80;76.30;;;12.38;81.21;95991.25;4950506;28;20039;-66
2021/09/20 02:28:11;;;;;;;10.80;9.70;;;13.80;76.20;;;12.35;81.07;95999.56;4956334;28;20042;-66
2021/09/20 02:30:37;;;;;;;11.77;10.38;;;13.70;76.10;;;12.34;81.12;95995.31;4947730;28;20426;-66
2021/09/20 02:33:03;;;;;;;12.93;10.32;;;13.70;76.30;;;12.33;80.33;95998.97;4950517;28;20041;-66
2021/09/20 02:35:28;;;;;;;11.32;10.15;;;13.70;76.00;;;12.32;80.54;95997.34;4966501;28;20024;-67
2021/09/20 02:37:54;;;;;;;11.50;10.35;;;13.60;75.60;;;12.27;80.05;96003.22;4964925;28;20063;-67
2021/09/20 02:40:20;;;;;;;11.55;10.43;;;13.60;75.80;;;12.27;80.43;96001.38;4948781;28;20031;-67
2021/09/20 02:42:46;;;;;;;11.35;10.18;;;13.70;75.60;;;12.26;80.91;96005.03;4951596;28;20043;-68
2021/09/20 02:45:13;;;;;;;11.52;10.23;;;13.60;75.60;;;12.23;79.84;96004.63;4944436;28;20086;-67
2021/09/20 02:47:39;;;;;;;10.70;9.57;;;13.60;75.90;;;12.22;79.93;96003.00;4949044;28;20675;-67
2021/09/20 02:50:05;;;;;;;10.82;9.48;;;13.60;76.00;;;12.21;80.77;96002.19;4938981;28;20047;-67
2021/09/20 02:52:31;;;;;;;11.45;10.25;;;13.60;76.20;;;12.21;80.18;96002.19;4954464;28;20027;-67
2021/09/20 02:54:57;;;;;;;12.13;10.02;;;13.60;76.00;;;12.21;80.43;96012.72;4919551;28;20654;-68
2021/09/20 02:57:23;;;;;;;12.20;10.30;;;13.60;75.80;;;12.19;80.78;96006.84;4926739;29;20054;-67
2021/09/20 02:59:48;;;;;;;12.48;11.18;;;13.60;76.00;;;12.17;80.55;96006.22;4966816;28;20062;-67
2021/09/20 03:02:14;;;;;;;11.38;10.18;;;13.60;75.60;;;12.18;80.89;96007.03;4958241;28;20039;-67
2021/09/20 03:04:40;;;;;;;11.30;10.18;;;13.60;75.90;;;12.19;80.44;96009.47;4948487;28;20601;-67
2021/09/20 03:07:06;;;;;;;11.38;10.20;;;13.60;75.70;;;12.16;80.45;96015.16;4931948;28;20721;-67
2021/09/20 03:09:32;;;;;;;12.15;10.88;;;13.50;75.60;;;12.15;80.56;96020.63;4948743;28;20503;-68
2021/09/20 03:11:57;;;;;;;13.80;11.07;;;13.50;75.90;;;12.13;80.72;96012.13;4958013;28;20046;-67
2021/09/20 03:14:23;;;;;;;11.95;10.75;;;13.50;76.00;;;12.14;80.10;96011.91;4936346;28;20166;-67
2021/09/20 03:16:49;;;;;;;11.80;10.60;;;13.50;75.90;;;12.10;79.95;96010.69;4954587;28;20065;-67
2021/09/20 03:19:15;;;;;;;12.55;11.23;;;13.60;75.70;;;12.10;80.38;96015.97;4942838;28;20062;-68
2021/09/20 03:21:40;;;;;;;11.63;10.52;;;13.50;75.90;;;12.10;80.25;96018.59;4958466;28;20035;-67
2021/09/20 03:24:06;;;;;;;12.30;11.07;;;13.50;76.00;;;12.07;80.29;96016.38;4952857;28;20039;-67
2021/09/20 03:26:32;;;;;;;13.00;11.63;;;13.40;75.90;;;12.05;80.11;96022.84;4949072;28;20094;-67
2021/09/20 03:28:57;;;;;;;12.60;11.35;;;13.40;76.20;;;12.03;80.54;96025.69;4923127;28;20473;-67
2021/09/20 03:31:23;;;;;;;13.63;11.90;;;13.40;76.00;;;12.02;80.51;96029.34;4931085;28;20047;-67
2021/09/20 03:33:49;;;;;;;13.82;11.70;;;13.40;76.30;;;11.98;80.42;96028.09;4933976;29;20098;-67
2021/09/20 03:36:14;;;;;;;14.43;11.43;;;13.40;76.40;;;11.98;81.08;96014.91;4935320;28;20054;-68
2021/09/20 03:38:40;;;;;;;17.20;12.25;;;13.40;76.40;;;11.97;81.43;96021.19;4921850;28;20396;-67
2021/09/20 03:41:06;;;;;;;13.90;12.50;;;13.40;76.40;;;11.96;81.43;96027.47;4967631;28;20104;-67
2021/09/20 03:43:32;;;;;;;13.93;12.43;;;13.30;76.10;;;11.93;80.54;96025.25;4958055;28;20078;-67
2021/09/20 03:45:57;;;;;;;13.43;11.80;;;13.30;76.30;;;11.93;80.74;96027.88;4951828;28;20074;-67
2021/09/20 03:48:23;;;;;;;13.32;12.02;;;13.40;76.40;;;11.94;81.17;96032.16;4957173;28;20126;-67
2021/09/20 03:50:49;;;;;;;15.70;11.93;;;13.30;76.40;;;11.92;80.68;96027.06;4957718;28;20059;-67
2021/09/20 03:53:14;;;;;;;13.82;12.25;;;13.40;76.20;;;11.92;81.34;96034.16;4932062;28;20035;-71
2021/09/20 03:55:40;;;;;;;13.35;11.95;;;13.40;76.40;;;11.90;80.97;96028.28;4924905;28;20050;-66
2021/09/20 03:58:06;;;;;;;16.50;12.20;;;13.30;76.60;;;11.91;81.39;96027.28;4934602;28;20122;-67
2021/09/20 04:00:32;;;;;;;13.93;12.00;;;13.40;76.40;;;11.92;81.05;96036.81;4918557;29;20102;-67
2021/09/20 04:02:57;;;;;;;14.85;12.38;;;13.40;76.40;;;11.93;81.34;96038.44;4960425;28;20071;-65
2021/09/20 04:05:23;;;;;;;13.65;12.25;;;13.40;76.40;;;11.91;81.28;96038.63;4938178;28;20050;-67
2021/09/20 04:07:49;;;;;;;14.05;12.65;;;13.40;76.30;;;11.94;81.05;96032.16;4954217;28;20452;-67
2021/09/20 04:10:15;;;;;;;14.55;11.93;;;13.40;76.30;;;11.92;81.47;96036.81;4966742;28;20406;-67
2021/09/20 04:12:41;;;;;;;13.30;11.77;;;13.40;76.30;;;11.93;81.63;96030.53;4958701;28;20043;-67
2021/09/20 04:15:07;;;;;;;14.35;12.85;;;13.40;76.50;;;11.93;81.11;96041.88;4934535;28;20042;-67
2021/09/20 04:17:33;;;;;;;14.32;12.68;;;13.30;76.20;;;11.92;80.53;96039.44;4931490;28;20032;-67
2021/09/20 04:19:58;;;;;;;14.77;13.27;;;13.30;75.80;;;11.90;81.01;96038.81;4931657;29;20043;-68
2021/09/20 04:22:24;;;;;;;15.80;14.20;;;13.30;75.90;;;11.89;81.25;96045.13;4942216;28;20031;-67
2021/09/20 04:24:50;;;;;;;20.92;17.90;;;13.40;76.30;;;11.89;81.34;96045.13;4950507;28;20464;-67
2021/09/20 04:27:16;;;;;;;17.73;15.93;;;13.40;76.30;;;11.89;81.84;96039.84;4950526;28;20333;-67
2021/09/20 04:29:42;;;;;;;16.63;14.65;;;13.30;75.70;;;11.88;81.33;96044.31;4918255;28;20396;-67
2021/09/20 04:32:08;;;;;;;14.80;13.27;;;13.30;75.80;;;11.87;80.90;96037.41;4941498;29;20518;-67
2021/09/20 04:34:33;;;;;;;14.88;12.90;;;13.30;75.50;;;11.87;80.59;96053.22;4929708;29;20039;-67
2021/09/20 04:36:59;;;;;;;15.95;12.82;;;13.20;75.50;;;11.84;81.00;96053.63;4923125;28;20141;-67
2021/09/20 04:39:25;;;;;;;15.93;13.40;;;13.20;76.00;;;11.86;80.43;96056.06;4945625;28;20042;-67
2021/09/20 04:41:50;;;;;;;15.40;13.50;;;13.30;75.80;;;11.83;81.00;96056.47;4944449;28;20074;-67
2021/09/20 04:44:16;;;;;;;18.77;13.98;;;13.20;75.50;;;11.80;80.29;96062.13;4931958;29;20039;-67
2021/09/20 04:46:42;;;;;;;14.85;13.35;;;13.20;75.70;;;11.81;80.64;96059.28;4932942;29;20046;-67
2021/09/20 04:49:08;;;;;;;15.98;14.30;;;13.20;75.50;;;11.77;80.97;96060.66;4943536;28;20055;-67
2021/09/20 04:51:34;;;;;;;15.30;13.70;;;13.20;75.60;;;11.80;81.21;96067.41;4918977;29;20090;-66
2021/09/20 04:54:00;;;;;;;16.00;13.68;;;13.20;76.10;;;11.82;80.65;96070.66;4913308;29;20498;-67
2021/09/20 04:56:25;;;;;;;16.70;14.00;;;13.30;76.30;;;11.82;81.07;96073.28;4922775;29;20043;-68
2021/09/20 04:58:51;;;;;;;17.65;14.18;;;13.30;76.10;;;11.84;80.63;96073.91;4947198;28;20083;-68
2021/09/20 05:01:17;;;;;;;16.55;14.27;;;13.30;76.00;;;11.85;80.94;96071.06;4941177;28;20070;-69
2021/09/20 05:03:43;;;;;;;15.57;13.90;;;13.30;75.90;;;11.83;81.14;96077.53;4928385;29;20040;-69
2021/09/20 05:06:08;;;;;;;16.33;14.07;;;13.30;76.10;;;11.86;80.94;96077.13;4916088;29;20040;-69
2021/09/20 05:08:34;;;;;;;16.45;14.50;;;13.30;75.80;;;11.86;81.00;96088.50;4931174;29;20036;-69
2021/09/20 05:11:00;;;;;;;16.40;13.88;;;13.40;76.00;;;11.85;81.67;96084.22;4952805;28;20035;-69
2021/09/20 05:13:27;;;;;;;18.63;15.00;;;13.30;76.10;;;11.87;80.96;96084.03;4945136;28;20039;-69
2021/09/20 05:15:52;;;;;;;15.27;13.65;;;13.40;75.80;;;11.86;80.74;96085.84;4904450;29;20038;-71
2021/09/20 05:18:18;;;;;;;15.15;13.65;;;13.40;75.80;;;11.88;81.11;96086.47;4939634;28;20036;-68
2021/09/20 05:20:44;;;;;;;15.60;13.95;;;13.40;75.40;;;11.89;81.00;96089.91;4939763;29;20039;-70
2021/09/20 05:23:10;;;;;;;16.67;14.20;;;13.40;75.40;;;11.88;80.84;96088.28;4933002;28;20039;-68
2021/09/20 05:25:35;;;;;;;16.50;14.63;;;13.40;75.50;;;11.89;80.45;96093.38;4945128;28;20024;-68
2021/09/20 05:28:01;;;;;;;18.50;13.60;;;13.30;75.70;;;11.89;81.27;96092.56;4941624;28;20039;-69
2021/09/20 05:30:27;;;;;;;16.25;14.48;;;13.40;76.10;;;11.88;81.33;96096.19;4946450;28;20067;-69
2021/09/20 05:32:53;;;;;;;17.55;14.75;;;13.40;76.10;;;11.90;81.72;96095.00;4944906;28;20027;-69
2021/09/20 05:35:19;;;;;;;15.85;14.00;;;13.50;76.10;;;11.92;81.65;96094.78;4931278;28;20046;-68
2021/09/20 05:37:46;;;;;;;16.20;14.45;;;13.50;76.20;;;11.92;81.43;96094.78;4946173;28;20039;-72
2021/09/20 05:40:12;;;;;;;16.35;14.02;;;13.50;76.10;;;11.95;81.23;96104.94;4929224;28;20043;-72
2021/09/20 05:42:38;;;;;;;16.35;14.32;;;13.50;76.40;;;11.92;81.77;96100.06;4912109;28;20058;-69
2021/09/20 05:45:05;;;;;;;28.02;22.73;;;13.50;76.30;;;11.96;81.65;96104.75;4938945;28;20090;-69
2021/09/20 05:47:30;;;;;;;19.15;17.13;;;13.60;76.40;;;12.00;81.45;96107.00;4918058;29;20034;-71
2021/09/20 05:49:56;;;;;;;24.00;20.70;;;13.60;75.80;;;11.96;81.08;96103.94;4949124;28;20602;-72
2021/09/20 05:52:22;;;;;;;34.25;29.30;;;13.60;75.30;;;11.99;81.14;96115.91;4933406;28;20040;-68
2021/09/20 05:54:49;;;;;;;52.33;44.70;;;13.50;75.30;;;11.98;80.96;96112.44;4930266;29;20043;-68
2021/09/20 05:57:15;;;;;;;26.73;23.83;;;13.60;75.50;;;12.01;81.22;96120.00;4918660;29;20055;-70
2021/09/20 05:59:41;;;;;;;24.42;21.75;;;13.60;75.60;;;12.03;80.99;96119.78;4934445;28;20523;-68
2021/09/20 06:02:07;;;;;;;29.02;25.83;;;13.60;75.40;;;12.01;80.82;96119.19;4957242;28;20122;-68
2021/09/20 06:04:32;;;;;;;20.38;18.27;;;13.60;76.00;;;12.03;81.39;96119.78;4945728;29;20535;-70
2021/09/20 06:06:58;;;;;;;29.25;25.88;;;13.60;75.50;;;12.03;81.67;96112.69;4932829;28;20040;-69
2021/09/20 06:09:24;;;;;;;38.22;32.75;;;13.60;75.60;;;12.03;80.69;96122.44;4904058;29;20062;-71
2021/09/20 06:11:49;;;;;;;28.33;22.80;;;13.60;75.20;;;12.02;80.79;96113.72;4949668;28;20055;-72
2021/09/20 06:14:15;;;;;;;19.20;17.20;;;13.60;74.20;;;12.04;80.04;96127.50;4933656;28;20039;-70
2021/09/20 06:16:41;;;;;;;19.15;17.08;;;13.60;74.30;;;12.09;80.43;96125.09;4900240;29;20096;-68
2021/09/20 06:19:07;;;;;;;19.67;17.58;;;13.70;74.10;;;12.13;79.87;96128.94;4940448;28;20422;-68
2021/09/20 06:21:32;;;;;;;18.30;16.40;;;13.70;74.00;;;12.16;80.16;96130.38;4932781;29;20418;-69
2021/09/20 06:23:58;;;;;;;16.73;14.98;;;13.80;74.40;;;12.20;79.75;96131.59;4907321;29;20487;-68
2021/09/20 06:26:24;;;;;;;16.80;15.05;;;13.80;74.30;;;12.22;80.38;96130.41;4958557;28;20044;-70
2021/09/20 06:28:50;;;;;;;15.73;14.13;;;13.90;73.90;;;12.27;79.65;96130.63;4960602;28;20444;-66
2021/09/20 06:31:15;;;;;;;15.52;13.93;;;13.90;73.60;;;12.32;79.77;96131.84;4934097;28;20521;-69
2021/09/20 06:33:41;;;;;;;36.78;30.73;;;14.00;73.90;;;12.35;79.51;96128.81;4961891;28;20470;-68
2021/09/20 06:36:07;;;;;;;22.75;20.30;;;14.00;73.40;;;12.40;79.88;96132.47;4939967;28;20080;-69
2021/09/20 06:38:32;;;;;;;24.10;21.55;;;14.10;73.90;;;12.46;79.68;96133.50;4937943;28;20067;-68
2021/09/20 06:40:58;;;;;;;16.70;14.88;;;14.20;73.50;;;12.51;79.67;96125.81;4947529;28;20047;-68
2021/09/20 06:43:24;;;;;;;16.45;13.57;;;14.10;73.30;;;12.55;78.93;96134.94;4956688;28;20043;-68
2021/09/20 06:45:50;;;;;;;16.30;14.00;;;14.20;72.50;;;12.57;78.56;96132.91;4931817;29;20127;-68
2021/09/20 06:48:15;;;;;;;16.80;13.50;;;14.20;71.80;;;12.58;78.31;96131.91;4932788;29;20036;-68
2021/09/20 06:50:41;;;;;;;15.60;13.60;;;14.30;70.90;;;12.62;77.59;96133.13;4987587;23;20168;-66
2021/09/20 06:53:07;;;;;;;15.77;13.70;;;14.30;71.50;;;12.67;77.70;96133.31;4979419;28;20034;-67
2021/09/20 06:55:33;;;;;;;14.45;12.95;;;14.30;71.20;;;12.70;77.47;96132.94;4957181;28;20057;-67
2021/09/20 06:57:59;;;;;;;14.88;13.13;;;14.50;70.70;;;12.77;77.42;96135.59;4958718;28;20050;-66
2021/09/20 07:00:26;;;;;;;16.95;14.07;;;14.50;70.20;;;12.79;76.68;96137.00;4966306;28;20169;-66
2021/09/20 07:02:52;;;;;;;13.63;12.20;;;14.60;70.40;;;12.86;77.10;96140.47;4974463;28;20031;-66
2021/09/20 07:05:18;;;;;;;15.27;12.93;;;14.60;70.70;;;12.88;76.47;96134.97;4985723;28;20037;-65
2021/09/20 07:07:43;;;;;;;14.38;12.88;;;14.60;70.50;;;12.91;76.67;96144.34;4959647;28;20027;-67
2021/09/20 07:10:12;;;;;;;14.70;13.00;;;14.60;70.30;;;12.88;76.59;96141.06;4990657;28;20038;-66
2021/09/20 07:12:38;;;;;;;16.52;13.75;;;14.50;69.70;;;12.86;76.10;96143.09;4990941;28;20042;-67
2021/09/20 07:15:05;;;;;;;16.10;13.40;;;14.50;69.70;;;12.87;76.60;96144.72;4973875;28;20506;-66
2021/09/20 07:17:34;;;;;;;14.85;12.88;;;14.50;70.10;;;12.92;75.93;96140.69;4974159;28;20118;-67
2021/09/20 07:20:00;;;;;;;21.02;18.75;;;14.50;70.50;;;12.86;75.90;96142.28;4954879;28;20035;-66
2021/09/20 07:22:25;;;;;;;26.05;21.23;;;14.50;70.60;;;12.87;76.02;96150.00;4942366;28;20038;-66
2021/09/20 07:24:51;;;;;;;30.25;26.65;;;14.50;70.30;;;12.89;76.12;96147.16;4990959;28;20046;-69
2021/09/20 07:27:17;;;;;;;18.15;16.25;;;14.60;70.50;;;12.90;75.38;96148.81;4990125;28;20081;-66
2021/09/20 07:29:43;;;;;;;22.15;19.75;;;14.60;69.40;;;12.93;75.83;96152.88;4974210;28;20113;-66
2021/09/20 07:32:08;;;;;;;16.92;15.13;;;14.60;69.40;;;12.93;75.08;96145.75;4989844;28;20034;-67
2021/09/20 07:34:34;;;;;;;15.70;13.63;;;14.60;68.60;;;12.96;75.64;96147.19;4970116;28;20117;-67
2021/09/20 07:37:00;;;;;;;13.77;12.40;;;14.70;68.50;;;13.00;74.35;96148.41;4989387;28;20046;-67
2021/09/20 07:39:26;;;;;;;14.73;12.98;;;14.80;68.60;;;13.05;75.33;96152.06;4958258;28;20108;-66
2021/09/20 07:41:51;;;;;;;14.15;12.65;;;14.90;68.80;;;13.12;75.36;96152.84;4985061;28;20039;-65
2021/09/20 07:44:17;;;;;;;14.05;12.65;;;15.00;69.10;;;13.17;74.77;96155.75;4965547;28;20042;-67
2021/09/20 07:46:43;;;;;;;13.63;12.18;;;14.90;68.00;;;13.21;75.09;96160.63;4990350;28;20116;-66
2021/09/20 07:49:08;;;;;;;15.15;13.15;;;15.00;67.50;;;13.22;74.18;96160.41;4988895;28;20457;-66
2021/09/20 07:51:34;;;;;;;13.77;12.35;;;15.00;67.10;;;13.26;73.70;96164.28;4972958;28;20609;-66
2021/09/20 07:54:00;;;;;;;13.95;12.23;;;15.00;67.40;;;13.27;74.16;96165.91;4989745;28;20415;-66
2021/09/20 07:56:27;;;;;;;14.85;12.30;;;15.00;67.40;;;13.28;74.41;96167.53;4972142;28;20461;-67
2021/09/20 07:58:53;;;;;;;14.07;12.45;;;15.00;67.70;;;13.29;73.79;96165.69;4980652;28;20152;-65
2021/09/20 08:01:19;;;;;;;13.40;12.02;;;15.10;66.80;;;13.34;73.32;96171.97;4989072;28;20121;-68
2021/09/20 08:03:45;;;;;;;14.18;11.55;;;15.10;67.20;;;13.36;73.61;96169.97;4957008;28;20042;-68
2021/09/20 08:06:10;;;;;;;13.93;11.75;;;15.20;66.40;;;13.45;73.23;96173.22;4972785;28;20042;-65
2021/09/20 08:08:36;;;;;;;12.27;10.95;;;15.40;66.40;;;13.54;73.75;96171.16;4990013;28;20105;-65
2021/09/20 08:11:02;;;;;;;13.98;11.52;;;15.60;65.90;;;13.63;72.55;96175.22;4986906;28;20121;-65
2021/09/20 08:13:28;;;;;;;15.13;10.93;;;15.60;65.20;;;13.74;73.28;96177.22;4954015;28;20058;-66
2021/09/20 08:15:54;;;;;;;12.05;10.77;;;15.80;64.90;;;13.86;72.89;96174.78;4985772;28;20088;-64
2021/09/20 08:18:20;;;;;;;13.57;11.30;;;16.00;64.60;;;13.99;72.70;96172.06;4989439;28;20413;-65
2021/09/20 08:20:46;;;;;;;12.75;11.20;;;16.10;62.90;;;14.08;71.00;96176.94;4985107;28;20125;-65
2021/09/20 08:23:12;;;;;;;12.68;11.38;;;16.20;61.90;;;14.22;70.78;96174.22;4983834;28;20057;-67
2021/09/20 08:25:38;;;;;;;13.50;10.98;;;16.40;61.80;;;14.36;69.93;96175.81;4989106;28;20320;-66
2021/09/20 08:28:03;;;;;;;14.77;11.07;;;16.60;61.80;;;14.49;70.17;96181.09;4989355;28;20507;-66
2021/09/20 08:30:29;;;;;;;13.73;11.07;;;16.80;61.20;;;14.63;70.07;96182.63;4973176;28;20387;-65
2021/09/20 08:32:55;;;;;;;13.43;11.23;;;17.00;61.00;;;14.76;70.18;96179.09;4975713;28;20038;-66
2021/09/20 08:35:21;;;;;;;11.43;10.23;;;17.10;59.60;;;14.97;69.79;96188.56;4972847;28;20050;-65
2021/09/20 08:37:47;;;;;;;13.70;11.23;;;17.60;58.50;;;15.08;67.89;96185.19;4990776;28;20513;-65
2021/09/20 08:40:13;;;;;;;11.90;10.70;;;17.60;57.20;;;15.25;67.84;96191.59;4972465;28;20085;-65
2021/09/20 08:42:40;;;;;;;15.40;11.40;;;17.90;57.50;;;15.47;67.90;96193.88;4973138;28;20038;-69
2021/09/20 08:45:07;;;;;;;14.38;10.85;;;18.20;57.60;;;15.69;67.54;96195.13;4988447;28;20126;-68
2021/09/20 08:47:33;;;;;;;12.80;11.10;;;18.50;56.90;;;15.90;67.45;96200.03;4984316;28;20023;-67
2021/09/20 08:49:59;;;;;;;13.68;11.20;;;18.70;56.50;;;16.08;67.35;96199.25;4971480;28;20375;-67
2021/09/20 08:52:26;;;;;;;12.63;11.25;;;18.90;55.70;;;16.29;66.97;96203.25;4969454;28;20054;-64
2021/09/20 08:54:51;;;;;;;12.68;11.25;;;19.20;54.00;;;16.54;65.78;96209.31;4968159;28;20129;-65
2021/09/20 08:57:19;;;;;;;15.27;13.00;;;19.60;52.60;;;16.77;65.56;96205.19;4972754;28;20042;-65
2021/09/20 08:59:45;;;;;;;18.98;15.60;;;19.90;52.10;;;17.09;64.92;96201.22;4972688;28;20041;-65
2021/09/20 09:02:15;;;;;;;13.52;11.90;;;20.50;51.40;;;17.49;62.44;96200.63;4972065;28;20062;-67
2021/09/20 09:04:41;;;;;;;12.25;10.70;;;20.90;49.50;;;17.91;63.76;96200.56;4978008;28;20110;-67
2021/09/20 09:07:10;;;;;;;12.02;10.15;;;21.40;48.60;;;18.19;61.17;96197.16;4948326;28;20052;-66
2021/09/20 09:09:40;;;;;;;11.55;10.30;;;21.50;46.00;;;18.55;59.13;96202.16;4970897;28;20035;-67
2021/09/20 09:12:24;;;;;;;11.93;10.45;;;22.10;45.10;;;19.12;56.15;96191.53;4972914;28;20039;-67
2021/09/20 09:14:55;;;;;;;14.93;11.60;;;23.00;43.40;;;19.67;57.10;96193.50;4980919;28;20054;-67
2021/09/20 09:17:29;;;;;;;13.60;10.43;;;23.40;43.60;;;20.05;55.89;96200.75;4972420;28;20117;-67
2021/09/20 09:20:50;;;;;;;9.73;8.15;;;23.40;43.30;;;20.33;51.72;96196.31;4952667;28;20037;-68
2021/09/20 09:23:16;;;;;;;9.63;8.20;;;23.70;40.70;;;20.75;56.76;96205.41;4970700;28;20047;-66
2021/09/20 09:25:44;;;;;;;11.68;9.70;;;24.10;39.10;;;20.82;53.84;96204.38;4988081;28;20065;-65
2021/09/20 09:28:18;;;;;;;10.15;9.10;;;23.90;40.80;;;20.87;52.07;96207.94;4988178;28;20077;-66
2021/09/20 09:30:49;;;;;;;9.95;8.00;;;23.90;41.70;;;21.05;53.02;96194.25;4988111;28;20461;-66
2021/09/20 09:33:19;;;;;;;8.90;7.45;;;24.10;42.00;;;21.08;52.13;96200.94;4971809;28;20093;-66
2021/09/20 09:35:47;;;;;;;8.60;7.68;;;24.00;40.10;;;21.01;52.56;96198.47;4987762;28;20037;-67
2021/09/20 09:38:13;;;;;;;12.77;10.40;;;23.70;40.00;;;20.83;53.89;96195.34;4988142;28;20180;-67
2021/09/20 09:40:57;;;;;;;18.00;16.10;;;23.30;41.40;;;20.65;51.76;96194.59;4972038;28;20928;-66
2021/09/20 09:43:32;;;;;;;9.63;8.00;;;22.80;43.60;;;20.40;51.70;96195.13;4972004;28;20061;-65
2021/09/20 09:46:00;;;;;;;8.68;6.65;;;22.40;43.30;;;20.13;53.16;96194.16;4969009;28;20114;-64
2021/09/20 09:48:29;;;;;;;8.43;7.53;;;21.70;44.10;;;19.80;51.94;96192.38;4966254;28;20039;-65
2021/09/20 09:50:58;;;;;;;7.50;6.50;;;21.30;44.80;;;19.50;53.28;96198.03;4984447;28;20046;-66
2021/09/20 09:53:44;;;;;;;7.78;6.70;;;21.00;46.80;;;19.18;53.19;96193.22;4971869;28;20557;-66
2021/09/20 09:56:18;;;;;;;8.30;6.88;;;20.70;48.30;;;18.89;54.51;96192.44;4987736;28;20038;-65
2021/09/20 09:59:01;;;;;;;9.68;8.10;;;20.50;48.30;;;18.71;54.55;96195.31;4989484;28;20405;-65
2021/09/20 10:01:35;;;;;;;9.65;7.85;;;20.40;49.80;;;18.59;55.72;96190.00;4970675;28;22084;-65
2021/09/20 10:04:23;;;;;;;8.45;7.15;;;20.40;49.50;;;18.51;54.38;96185.03;4981705;28;20038;-65
2021/09/20 10:06:55;;;;;;;8.27;7.13;;;20.40;47.70;;;18.49;55.48;96191.63;4973464;28;20034;-66
2021/09/20 10:09:23;;;;;;;8.25;7.13;;;20.50;48.90;;;18.51;55.66;96192.22;4969641;28;20528;-64